Time;durP1;ratioP1;P1;durP2;ratioP2;P2;SDS_P1;SDS_P2;PMS_P1;PMS_P2;Temp;Humidity;BMP_temperature;BMP_pressure;BME280_temperature;BME280_humidity;BME280_pressure;Samples;Min_cycle;Max_cycle;Signal;HPM_P1;HPM_P2
2022/05/06 00:00:01;;;;;;;28.95;8.07;;;12.10;99.90;;;;;;5052163;28;20029;-64
2022/05/06 00:02:27;;;;;;;42.38;8.93;;;12.00;99.90;;;;;;5051977;28;20445;-65
2022/05/06 00:04:52;;;;;;;55.50;11.20;;;12.00;99.90;;;;;;5052066;28;20036;-61
2022/05/06 00:07:18;;;;;;;56.83;10.27;;;12.00;99.90;;;;;;5052107;28;20096;-64
2022/05/06 00:09:44;;;;;;;45.60;7.55;;;12.00;99.90;;;;;;5051785;28;20401;-62
2022/05/06 00:12:12;;;;;;;41.38;9.05;;;12.00;99.90;;;;;;5051848;28;20013;-65
2022/05/06 00:14:38;;;;;;;38.47;8.65;;;12.00;99.90;;;;;;5052018;28;20115;-66
2022/05/06 00:17:06;;;;;;;81.90;10.55;;;12.00;99.90;;;;;;5051499;28;20028;-66
2022/05/06 00:19:32;;;;;;;34.10;7.82;;;11.90;99.90;;;;;;5052221;28;20029;-62
2022/05/06 00:21:57;;;;;;;43.25;8.48;;;11.90;99.90;;;;;;5051870;28;20469;-63
2022/05/06 00:24:23;;;;;;;31.65;11.95;;;12.00;99.90;;;;;;5051767;28;20066;-62
2022/05/06 00:26:48;;;;;;;53.92;9.18;;;11.90;99.90;;;;;;5051850;28;20028;-65
2022/05/06 00:29:14;;;;;;;41.63;11.27;;;11.90;99.90;;;;;;5051813;28;20453;-62
2022/05/06 00:31:40;;;;;;;49.10;12.88;;;11.90;99.90;;;;;;5051589;28;20581;-63
2022/05/06 00:34:06;;;;;;;33.78;11.63;;;11.90;99.90;;;;;;5050573;28;20032;-61
2022/05/06 00:36:31;;;;;;;120.72;12.57;;;11.90;99.90;;;;;;5054959;28;20028;-64
2022/05/06 00:38:57;;;;;;;29.13;12.13;;;11.80;99.90;;;;;;5055317;28;20032;-64
2022/05/06 00:41:22;;;;;;;36.42;12.55;;;11.80;99.90;;;;;;5055343;28;20025;-61
2022/05/06 00:43:48;;;;;;;43.40;16.52;;;11.90;99.90;;;;;;5055348;28;20060;-64
2022/05/06 00:46:15;;;;;;;72.95;11.93;;;11.90;99.90;;;;;;5055110;28;20045;-63
2022/05/06 00:48:47;;;;;;;47.03;14.73;;;11.90;99.90;;;;;;5055424;28;20036;-63
2022/05/06 00:51:14;;;;;;;61.83;12.70;;;11.90;99.90;;;;;;5055143;28;20025;-63
2022/05/06 00:53:40;;;;;;;81.97;15.45;;;11.90;99.90;;;;;;5055089;28;20031;-66
2022/05/06 00:56:11;;;;;;;45.83;9.55;;;11.80;99.90;;;;;;5055048;28;20063;-63
2022/05/06 00:58:37;;;;;;;45.47;10.52;;;11.80;99.90;;;;;;5054762;28;20047;-64
2022/05/06 01:01:03;;;;;;;34.45;10.15;;;11.80;99.90;;;;;;5054735;28;20025;-63
2022/05/06 01:03:30;;;;;;;47.13;11.73;;;11.80;99.90;;;;;;5054883;28;20048;-66
2022/05/06 01:05:56;;;;;;;48.42;10.65;;;11.70;99.90;;;;;;5054900;28;20057;-64
2022/05/06 01:08:21;;;;;;;58.67;9.20;;;11.70;99.90;;;;;;5054610;28;20049;-61
2022/05/06 01:10:48;;;;;;;61.97;12.45;;;11.60;99.90;;;;;;5054502;28;20068;-63
2022/05/06 01:13:13;;;;;;;55.67;9.25;;;11.60;99.90;;;;;;5054198;28;20039;-66
2022/05/06 01:15:39;;;;;;;42.58;10.88;;;11.60;99.90;;;;;;5054596;28;20095;-61
2022/05/06 01:18:05;;;;;;;35.45;7.80;;;11.50;99.90;;;;;;5054245;28;20052;-64
2022/05/06 01:20:37;;;;;;;36.53;10.68;;;11.40;99.90;;;;;;5054647;28;20025;-64
2022/05/06 01:23:04;;;;;;;;;;;11.40;99.90;;;;;;5054838;28;20063;-63
2022/05/06 01:25:29;;;;;;;25.92;7.75;;;11.40;99.90;;;;;;5054533;28;19970;-63
2022/05/06 01:28:03;;;;;;;26.98;7.80;;;11.30;99.90;;;;;;5053758;28;20492;-61
2022/05/06 01:30:31;;;;;;;37.25;8.13;;;11.30;99.90;;;;;;5054389;28;20120;-61
2022/05/06 01:32:59;;;;;;;20.88;7.45;;;11.30;99.90;;;;;;5054211;28;20029;-63
2022/05/06 01:35:28;;;;;;;18.63;7.13;;;11.30;99.90;;;;;;5054253;28;20475;-66
2022/05/06 01:37:58;;;;;;;27.60;8.98;;;11.20;99.90;;;;;;5052897;28;20376;-65
2022/05/06 01:40:27;;;;;;;38.22;9.82;;;11.30;99.90;;;;;;5053716;28;20054;-63
2022/05/06 01:42:57;;;;;;;24.40;8.68;;;11.20;99.90;;;;;;5052887;28;20020;-64
2022/05/06 01:45:24;;;;;;;19.55;6.75;;;11.20;99.90;;;;;;5054018;28;20016;-64
2022/05/06 01:47:54;;;;;;;55.47;7.65;;;11.20;99.90;;;;;;5051675;28;20198;-63
2022/05/06 01:50:23;;;;;;;24.30;6.07;;;11.10;99.90;;;;;;5053844;28;20036;-62
2022/05/06 01:52:50;;;;;;;40.88;9.00;;;11.10;99.90;;;;;;5053468;28;20029;-65
2022/05/06 01:55:17;;;;;;;45.25;10.52;;;11.00;99.90;;;;;;5053898;28;20028;-65
2022/05/06 01:57:42;;;;;;;37.63;14.23;;;11.00;99.90;;;;;;5053837;28;20469;-64
2022/05/06 02:00:08;;;;;;;32.88;9.30;;;11.00;99.90;;;;;;5053887;28;20036;-62
2022/05/06 02:02:34;;;;;;;31.48;7.70;;;11.00;99.90;;;;;;5053691;28;20025;-65
2022/05/06 02:05:18;;;;;;;33.72;9.73;;;11.00;99.90;;;;;;5053709;28;20096;-62
2022/05/06 02:07:48;;;;;;;26.83;7.05;;;10.90;99.90;;;;;;5053773;28;20020;-61
2022/05/06 02:10:14;;;;;;;32.42;7.75;;;10.90;99.90;;;;;;5052395;28;20364;-66
2022/05/06 02:12:40;;;;;;;44.67;10.00;;;10.80;99.90;;;;;;5053170;28;20029;-65
2022/05/06 02:15:07;;;;;;;29.95;6.80;;;10.80;99.90;;;;;;5053637;28;20028;-66
2022/05/06 02:17:32;;;;;;;32.22;7.20;;;10.90;99.90;;;;;;5053585;28;20021;-65
2022/05/06 02:19:58;;;;;;;57.65;8.15;;;10.80;99.90;;;;;;5053223;28;20074;-64
2022/05/06 02:22:27;;;;;;;36.97;10.32;;;10.80;99.90;;;;;;5053439;28;20055;-61
2022/05/06 02:24:53;;;;;;;51.45;8.00;;;10.80;99.90;;;;;;5053199;28;20473;-63
2022/05/06 02:27:18;;;;;;;44.50;7.70;;;10.80;99.90;;;;;;5053340;28;20019;-65
2022/05/06 02:33:12;;;;;;;43.42;8.10;;;10.80;99.90;;;;;;5052783;28;20045;-63
2022/05/06 02:35:14;;;;;;;33.15;9.10;;;10.80;99.90;;;;;;5053042;28;20035;-65
2022/05/06 02:37:40;;;;;;;45.03;6.32;;;10.80;99.90;;;;;;5051748;28;20020;-66
2022/05/06 02:40:08;;;;;;;47.90;6.95;;;10.80;99.90;;;;;;5052972;28;20339;-62
2022/05/06 02:42:33;;;;;;;43.25;7.70;;;10.70;99.90;;;;;;5053080;28;20020;-66
2022/05/06 02:44:59;;;;;;;25.88;6.32;;;10.70;99.90;;;;;;5052801;28;20025;-65
2022/05/06 02:47:24;;;;;;;29.73;7.00;;;10.70;99.90;;;;;;5052984;28;20021;-63
2022/05/06 02:49:50;;;;;;;39.20;6.10;;;10.70;99.90;;;;;;5052757;28;20017;-65
2022/05/06 02:52:15;;;;;;;54.70;8.50;;;10.80;99.90;;;;;;5052705;28;20028;-63
2022/05/06 02:54:41;;;;;;;35.80;7.15;;;10.80;99.90;;;;;;5052821;28;20040;-63
2022/05/06 02:57:06;;;;;;;50.85;7.93;;;10.80;99.90;;;;;;5052575;28;20028;-64
2022/05/06 02:59:32;;;;;;;102.18;16.52;;;10.80;99.90;;;;;;5051999;28;20031;-60
2022/05/06 03:01:57;;;;;;;23.30;4.75;;;10.70;99.90;;;;;;5052761;28;20104;-63
2022/05/06 03:04:23;;;;;;;39.80;5.95;;;10.70;99.90;;;;;;5052719;28;20029;-61
2022/05/06 03:06:49;;;;;;;37.25;10.15;;;10.70;99.90;;;;;;5052925;28;20055;-63
2022/05/06 03:09:14;;;;;;;31.10;6.55;;;10.70;99.90;;;;;;5052963;28;20025;-61
2022/05/06 03:11:40;;;;;;;24.23;4.32;;;10.70;99.90;;;;;;5051015;28;20505;-66
2022/05/06 03:14:05;;;;;;;29.50;7.50;;;10.70;99.90;;;;;;5052137;28;20039;-60
2022/05/06 03:16:31;;;;;;;47.38;7.07;;;10.70;99.90;;;;;;5052904;28;20021;-63
2022/05/06 03:18:59;;;;;;;55.88;6.53;;;10.70;99.90;;;;;;5052609;28;20103;-63
2022/05/06 03:21:26;;;;;;;30.38;6.45;;;10.60;99.90;;;;;;5052385;28;20017;-63
2022/05/06 03:23:51;;;;;;;33.83;8.48;;;10.60;99.90;;;;;;5052132;28;20029;-62
2022/05/06 03:26:17;;;;;;;31.80;6.35;;;10.60;99.90;;;;;;5050999;28;20424;-62
2022/05/06 03:28:43;;;;;;;34.45;7.65;;;10.60;99.90;;;;;;5051900;28;20124;-68
2022/05/06 03:31:10;;;;;;;66.53;8.27;;;10.70;99.90;;;;;;5052435;28;20032;-64
2022/05/06 03:33:36;;;;;;;39.72;6.32;;;10.70;99.90;;;;;;5052341;28;20050;-64
2022/05/06 03:36:02;;;;;;;48.30;6.32;;;10.70;99.90;;;;;;5052181;28;20418;-64
2022/05/06 03:38:27;;;;;;;34.13;6.82;;;10.60;99.90;;;;;;5052070;28;20092;-64
2022/05/06 03:40:55;;;;;;;60.97;11.02;;;10.60;99.90;;;;;;5052482;28;20026;-67
2022/05/06 03:43:21;;;;;;;52.33;6.63;;;10.60;99.90;;;;;;5051897;28;20111;-65
2022/05/06 03:45:46;;;;;;;74.00;6.35;;;10.60;99.90;;;;;;5052619;28;20068;-65
2022/05/06 03:48:12;;;;;;;54.15;8.20;;;10.60;99.90;;;;;;5052289;28;20013;-63
2022/05/06 03:53:24;;;;;;;58.28;6.78;;;10.60;99.90;;;;;;5052132;28;20104;-61
2022/05/06 03:55:49;;;;;;;42.88;4.70;;;10.60;99.90;;;;;;5052026;28;20025;-63
2022/05/06 03:58:15;;;;;;;48.75;5.90;;;10.60;99.90;;;;;;5052241;28;20036;-63
2022/05/06 04:00:41;;;;;;;65.03;6.25;;;10.50;99.90;;;;;;5051900;28;20526;-64
2022/05/06 04:03:07;;;;;;;47.05;6.80;;;10.60;99.90;;;;;;5051952;28;20096;-64
2022/05/06 04:05:34;;;;;;;43.55;6.93;;;10.50;99.90;;;;;;5051930;28;20107;-65
2022/05/06 04:08:00;;;;;;;41.72;5.35;;;10.50;99.90;;;;;;5050611;28;20449;-62
2022/05/06 04:10:27;;;;;;;49.58;7.25;;;10.50;99.90;;;;;;5053307;28;20048;-61
2022/05/06 04:12:53;;;;;;;51.72;12.65;;;10.50;99.90;;;;;;5055462;28;20029;-61
2022/05/06 04:15:19;;;;;;;57.47;9.10;;;10.50;99.90;;;;;;5055814;28;20113;-66
2022/05/06 04:17:45;;;;;;;42.50;10.02;;;10.60;99.90;;;;;;5054289;28;20036;-64
2022/05/06 04:25:41;;;;;;;40.00;7.60;;;10.70;99.90;;;;;;5055503;28;20040;-62
2022/05/06 04:28:07;;;;;;;61.97;9.23;;;10.70;99.90;;;;;;5055258;28;20037;-62
2022/05/06 04:30:32;;;;;;;32.70;6.60;;;10.60;99.90;;;;;;5055105;28;20119;-66
2022/05/06 04:32:58;;;;;;;50.40;9.23;;;10.60;99.90;;;;;;5055134;28;20460;-62
2022/05/06 04:35:24;;;;;;;46.38;10.13;;;10.70;99.90;;;;;;5054973;28;20025;-62
2022/05/06 04:37:49;;;;;;;32.38;6.20;;;10.70;99.90;;;;;;5055133;28;20408;-63
2022/05/06 04:40:16;;;;;;;35.83;9.43;;;10.70;99.90;;;;;;5055095;28;20025;-64
2022/05/06 04:42:44;;;;;;;37.88;6.88;;;10.70;99.90;;;;;;5055330;28;20417;-67
2022/05/06 04:45:10;;;;;;;39.85;8.02;;;10.80;99.90;;;;;;5053895;28;20364;-65
2022/05/06 04:47:37;;;;;;;29.30;8.20;;;10.80;99.90;;;;;;5055038;28;20021;-62
2022/05/06 04:50:04;;;;;;;43.35;7.38;;;10.80;99.90;;;;;;5054857;28;20055;-63
2022/05/06 04:52:30;;;;;;;34.75;5.57;;;10.80;99.90;;;;;;5055066;28;20025;-65
2022/05/06 04:54:56;;;;;;;45.00;6.97;;;10.80;99.90;;;;;;5054717;28;20441;-65
2022/05/06 04:57:21;;;;;;;45.72;6.43;;;10.70;99.90;;;;;;5054886;28;20036;-65
2022/05/06 04:59:47;;;;;;;25.05;6.03;;;10.60;99.90;;;;;;5054622;28;20071;-66
2022/05/06 05:02:15;;;;;;;48.92;5.63;;;10.60;99.90;;;;;;5054902;28;20342;-65
2022/05/06 05:04:42;;;;;;;33.33;7.00;;;10.60;99.90;;;;;;5054704;28;20100;-65
2022/05/06 05:07:07;;;;;;;37.17;6.30;;;10.70;99.90;;;;;;5054486;28;20079;-65
2022/05/06 05:09:33;;;;;;;24.38;6.45;;;10.70;99.90;;;;;;5054685;28;20441;-66
2022/05/06 05:11:59;;;;;;;24.75;6.55;;;10.70;99.90;;;;;;5054525;28;20858;-63
2022/05/06 05:14:24;;;;;;;33.97;6.97;;;10.80;99.90;;;;;;5054560;28;20495;-64
2022/05/06 05:16:50;;;;;;;25.25;5.78;;;10.80;99.90;;;;;;5054709;28;20021;-64
2022/05/06 05:19:17;;;;;;;29.75;7.10;;;10.80;99.90;;;;;;5054759;28;20100;-64
2022/05/06 05:21:43;;;;;;;24.15;5.22;;;10.80;99.90;;;;;;5054281;28;20091;-62
2022/05/06 05:24:08;;;;;;;33.20;8.00;;;10.80;99.90;;;;;;5054541;28;20020;-61
2022/05/06 05:26:34;;;;;;;28.83;6.22;;;10.80;99.90;;;;;;5053053;28;20033;-64
2022/05/06 05:29:00;;;;;;;37.47;9.98;;;10.90;99.90;;;;;;5054261;28;20049;-64
2022/05/06 05:31:26;;;;;;;27.60;8.18;;;11.00;99.90;;;;;;5054219;28;20020;-63
2022/05/06 05:33:52;;;;;;;31.73;6.68;;;11.10;99.90;;;;;;5054393;28;20032;-60
2022/05/06 05:36:18;;;;;;;20.77;5.80;;;11.30;99.90;;;;;;5054391;28;20017;-64
2022/05/06 05:38:44;;;;;;;27.77;8.15;;;11.40;99.90;;;;;;5054225;28;20059;-62
2022/05/06 05:41:09;;;;;;;24.95;7.32;;;11.50;99.90;;;;;;5054382;28;20049;-66
2022/05/06 05:49:03;;;;;;;19.75;6.88;;;12.00;99.90;;;;;;5053410;28;20071;-62
2022/05/06 05:51:29;;;;;;;14.88;6.03;;;12.20;99.90;;;;;;5049010;28;20013;-62
2022/05/06 05:53:54;;;;;;;18.88;4.07;;;12.40;99.90;;;;;;5053995;28;20481;-62
2022/05/06 05:56:20;;;;;;;18.52;4.72;;;12.50;99.90;;;;;;5054243;28;20032;-66
2022/05/06 05:58:46;;;;;;;16.50;5.65;;;12.60;99.90;;;;;;5053640;28;20032;-62
2022/05/06 06:01:11;;;;;;;19.73;5.68;;;12.80;99.90;;;;;;5054118;28;20035;-62
2022/05/06 06:03:37;;;;;;;13.27;4.45;;;13.00;99.90;;;;;;5053491;28;20028;-63
2022/05/06 06:06:03;;;;;;;20.08;4.93;;;13.10;99.90;;;;;;5052435;28;20017;-62
2022/05/06 06:08:28;;;;;;;11.60;4.32;;;13.40;99.90;;;;;;5053826;28;20455;-62
2022/05/06 06:10:54;;;;;;;6.78;3.00;;;13.60;99.90;;;;;;5052097;28;20024;-63
2022/05/06 06:13:20;;;;;;;12.85;4.20;;;13.60;99.90;;;;;;5053370;28;20033;-62
2022/05/06 06:15:46;;;;;;;8.20;3.20;;;13.70;99.90;;;;;;5052243;28;20441;-62
2022/05/06 06:18:14;;;;;;;11.73;3.97;;;13.70;99.90;;;;;;5053703;28;20104;-62
2022/05/06 06:20:39;;;;;;;10.23;4.68;;;13.80;99.90;;;;;;5053742;28;20045;-62
2022/05/06 06:23:05;;;;;;;9.15;4.18;;;13.90;99.90;;;;;;5053676;28;20064;-62
2022/05/06 06:25:31;;;;;;;9.23;3.78;;;14.10;99.90;;;;;;5053393;28;20031;-63
2022/05/06 06:27:56;;;;;;;9.35;4.00;;;14.20;99.90;;;;;;5053082;28;20416;-62
2022/05/06 06:30:23;;;;;;;7.35;3.45;;;14.20;99.90;;;;;;5053448;28;20029;-63
2022/05/06 06:32:50;;;;;;;6.70;3.50;;;14.40;99.90;;;;;;5047905;28;20040;-62
2022/05/06 06:35:16;;;;;;;4.75;2.95;;;14.50;99.90;;;;;;5052484;28;20029;-62
2022/05/06 06:37:42;;;;;;;4.88;2.80;;;14.80;99.90;;;;;;5052707;28;20055;-62
2022/05/06 06:40:08;;;;;;;4.95;2.35;;;15.50;99.90;;;;;;5052740;28;20445;-63
2022/05/06 06:42:34;;;;;;;5.38;2.95;;;15.90;99.90;;;;;;5052570;28;20025;-63
2022/05/06 06:44:59;;;;;;;6.45;3.40;;;16.30;99.90;;;;;;5052917;28;20032;-62
2022/05/06 06:47:26;;;;;;;5.65;2.97;;;16.50;99.90;;;;;;5052848;28;20067;-63
2022/05/06 06:49:51;;;;;;;6.03;2.55;;;16.70;99.90;;;;;;5052541;28;20395;-63
2022/05/06 06:52:17;;;;;;;4.72;2.53;;;17.30;99.90;;;;;;5052575;28;20021;-63
2022/05/06 06:54:42;;;;;;;6.28;2.90;;;17.90;99.90;;;;;;5052814;28;20040;-63
2022/05/06 06:57:08;;;;;;;3.75;2.17;;;18.40;99.90;;;;;;5052249;28;20035;-63
2022/05/06 06:59:34;;;;;;;3.95;2.55;;;19.10;99.90;;;;;;5052927;28;20020;-62
2022/05/06 07:02:01;;;;;;;3.65;2.30;;;19.70;99.90;;;;;;5052596;28;20025;-62
2022/05/06 07:04:26;;;;;;;4.30;2.53;;;20.40;99.90;;;;;;5052405;28;20025;-63
2022/05/06 07:12:20;;;;;;;3.85;2.60;;;21.50;97.70;;;;;;5052277;28;20032;-61
2022/05/06 07:14:45;;;;;;;3.95;2.45;;;21.70;97.60;;;;;;5052237;28;20037;-62
2022/05/06 07:17:13;;;;;;;4.53;2.60;;;22.00;96.90;;;;;;5052587;28;20032;-62
2022/05/06 07:19:39;;;;;;;3.63;2.58;;;22.00;97.00;;;;;;5052297;28;20017;-62
2022/05/06 07:22:04;;;;;;;4.13;2.70;;;22.00;96.90;;;;;;5052054;28;20048;-62
2022/05/06 07:24:30;;;;;;;3.78;2.60;;;21.80;96.60;;;;;;5052594;28;20021;-61
2022/05/06 07:26:56;;;;;;;3.40;2.58;;;21.40;97.10;;;;;;5047757;28;20028;-62
2022/05/06 07:29:23;;;;;;;5.25;3.50;;;20.80;97.50;;;;;;5051386;28;20041;-61
2022/05/06 07:31:48;;;;;;;3.25;2.50;;;20.20;97.90;;;;;;5051291;28;20079;-61
2022/05/06 07:34:17;;;;;;;2.97;2.42;;;19.60;99.00;;;;;;5051992;28;20457;-61
2022/05/06 07:36:42;;;;;;;5.95;3.65;;;19.20;99.60;;;;;;5051998;28;20025;-61
2022/05/06 07:39:12;;;;;;;4.65;3.00;;;18.80;99.90;;;;;;5050999;28;20412;-61
2022/05/06 07:41:39;;;;;;;6.47;3.90;;;18.60;99.90;;;;;;5052280;28;20017;-61
2022/05/06 07:44:05;;;;;;;4.15;2.58;;;18.40;99.90;;;;;;5053025;28;20021;-62
2022/05/06 07:46:32;;;;;;;7.45;3.45;;;18.30;99.90;;;;;;5056495;28;20025;-61
2022/05/06 07:48:57;;;;;;;5.68;3.58;;;18.20;99.90;;;;;;5055539;28;20033;-62
2022/05/06 07:51:23;;;;;;;6.22;2.72;;;18.30;99.90;;;;;;5056316;28;20021;-62
2022/05/06 07:53:51;;;;;;;4.47;3.10;;;18.40;99.90;;;;;;5056185;28;20486;-61
2022/05/06 07:56:20;;;;;;;7.00;3.45;;;18.60;99.90;;;;;;5056153;28;20402;-62
2022/05/06 07:58:46;;;;;;;4.80;3.03;;;19.00;99.90;;;;;;5055471;28;20021;-62
2022/05/06 08:01:12;;;;;;;6.15;4.00;;;19.30;99.90;;;;;;5056142;28;20021;-62
2022/05/06 08:06:22;;;;;;;5.22;3.03;;;20.70;99.50;;;;;;5055863;28;20056;-62
2022/05/06 08:08:47;;;;;;;7.18;3.47;;;21.40;98.40;;;;;;5055718;28;20457;-62
2022/05/06 08:11:13;;;;;;;6.60;2.88;;;22.50;97.30;;;;;;5055637;28;20021;-62
2022/05/06 08:13:39;;;;;;;6.35;2.70;;;23.40;95.60;;;;;;5051843;28;20479;-62
2022/05/06 08:16:05;;;;;;;5.03;2.70;;;24.00;94.70;;;;;;5054854;28;20024;-62
2022/05/06 08:18:30;;;;;;;4.72;3.03;;;24.70;93.00;;;;;;5055504;28;20021;-62
2022/05/06 08:20:56;;;;;;;4.50;2.80;;;24.90;92.50;;;;;;5055664;28;20461;-62
2022/05/06 08:23:22;;;;;;;3.72;2.80;;;25.40;92.20;;;;;;5055213;28;20020;-63
2022/05/06 08:25:49;;;;;;;7.50;3.35;;;26.20;91.70;;;;;;5054240;28;20021;-62
2022/05/06 08:28:15;;;;;;;7.03;3.63;;;27.00;90.00;;;;;;5055512;28;20342;-61
2022/05/06 08:30:41;;;;;;;9.60;4.78;;;27.60;87.90;;;;;;5054281;28;20434;-62
2022/05/06 08:33:06;;;;;;;8.23;4.82;;;27.90;85.30;;;;;;5055174;28;20041;-62
2022/05/06 08:35:32;;;;;;;11.13;5.80;;;28.30;84.50;;;;;;5055681;28;20104;-61
2022/05/06 08:37:58;;;;;;;8.70;5.63;;;28.80;83.10;;;;;;5055383;28;20025;-62
2022/05/06 08:40:26;;;;;;;7.75;4.65;;;29.10;81.60;;;;;;5055341;28;20071;-62
2022/05/06 08:42:52;;;;;;;10.48;6.47;;;29.50;79.10;;;;;;5055597;28;20025;-62
2022/05/06 08:50:54;;;;;;;11.30;6.32;;;30.50;76.00;;;;;;5055114;28;20035;-65
2022/05/06 08:53:31;;;;;;;13.27;8.23;;;30.90;74.80;;;;;;5054823;28;20426;-64
2022/05/06 08:55:59;;;;;;;9.02;5.97;;;31.00;72.60;;;;;;5050163;28;20079;-65
2022/05/06 08:58:27;;;;;;;10.82;6.20;;;31.00;72.00;;;;;;5054746;28;20092;-63
2022/05/06 09:01:07;;;;;;;9.88;5.80;;;31.40;71.50;;;;;;5054725;28;20009;-65
2022/05/06 09:03:33;;;;;;;10.55;5.80;;;32.00;70.10;;;;;;5054513;28;20477;-63
2022/05/06 09:05:58;;;;;;;9.88;6.53;;;32.00;67.70;;;;;;5054717;28;20027;-64
2022/05/06 09:08:36;;;;;;;10.23;6.47;;;31.80;68.10;;;;;;5053470;28;20031;-66
2022/05/06 09:11:05;;;;;;;10.10;5.90;;;31.70;67.70;;;;;;5054870;28;20465;-63
2022/05/06 09:13:31;;;;;;;7.78;5.70;;;32.00;66.40;;;;;;5054690;28;20036;-64
2022/05/06 09:16:41;;;;;;;12.65;6.22;;;32.30;65.70;;;;;;5054779;28;20051;-65
2022/05/06 09:19:23;;;;;;;10.90;7.03;;;32.20;64.60;;;;;;5054542;28;20028;-66
2022/05/06 09:22:11;;;;;;;8.02;5.50;;;32.30;64.60;;;;;;5054283;28;20412;-66
2022/05/06 09:24:37;;;;;;;14.60;7.30;;;32.50;62.70;;;;;;5054453;28;20468;-63
2022/05/06 09:27:09;;;;;;;11.98;7.78;;;32.20;62.70;;;;;;5054103;28;20055;-64
2022/05/06 09:29:36;;;;;;;;;;;31.80;62.00;;;;;;5054658;28;20041;-66
2022/05/06 09:32:23;;;;;;;12.20;7.35;;;31.90;61.50;;;;;;5054249;28;19940;-66
2022/05/06 09:35:13;;;;;;;12.30;7.15;;;32.20;61.30;;;;;;5053904;28;20380;-64
2022/05/06 09:37:47;;;;;;;12.13;7.05;;;32.50;60.10;;;;;;5054311;28;20032;-66
2022/05/06 09:40:14;;;;;;;15.40;8.50;;;32.80;60.80;;;;;;5053902;28;20033;-65
2022/05/06 09:42:42;;;;;;;12.38;7.72;;;32.80;59.30;;;;;;5054415;28;20029;-68
2022/05/06 09:45:12;;;;;;;14.50;9.18;;;32.90;58.40;;;;;;5054197;28;20457;-65
2022/05/06 09:47:40;;;;;;;16.10;10.27;;;32.90;58.50;;;;;;5054248;28;20017;-65
2022/05/06 09:50:07;;;;;;;14.50;8.57;;;33.20;58.30;;;;;;5053757;28;20028;-65
2022/05/06 09:52:34;;;;;;;16.33;9.02;;;33.60;57.70;;;;;;5053891;28;20461;-65
2022/05/06 09:55:01;;;;;;;13.95;7.75;;;33.70;57.10;;;;;;5053784;28;20021;-63
2022/05/06 09:57:27;;;;;;;13.30;8.05;;;34.00;56.50;;;;;;5053705;28;20368;-66
2022/05/06 09:59:52;;;;;;;14.18;7.85;;;34.40;56.00;;;;;;5050332;28;20021;-63
2022/05/06 10:02:18;;;;;;;14.05;9.25;;;34.60;54.90;;;;;;5053053;28;20032;-64
2022/05/06 10:04:44;;;;;;;10.50;6.13;;;34.60;55.10;;;;;;5053849;28;20021;-68
2022/05/06 10:07:11;;;;;;;12.45;7.63;;;34.70;53.50;;;;;;5052922;28;20021;-64
2022/05/06 10:09:45;;;;;;;13.25;7.65;;;34.50;54.70;;;;;;5053146;28;20064;-61
2022/05/06 10:12:14;;;;;;;13.05;7.65;;;34.40;53.80;;;;;;5053658;28;20099;-61
2022/05/06 10:14:40;;;;;;;17.38;8.65;;;34.20;54.30;;;;;;5053118;28;20033;-64
2022/05/06 10:17:08;;;;;;;10.88;7.20;;;34.30;54.00;;;;;;5060257;28;20528;-63
2022/05/06 10:19:36;;;;;;;11.77;7.68;;;34.20;53.60;;;;;;5065435;28;20060;-64
2022/05/06 10:22:03;;;;;;;13.45;7.45;;;34.00;53.50;;;;;;5073298;28;20024;-62
2022/05/06 10:24:39;;;;;;;10.88;7.63;;;34.00;53.50;;;;;;5054928;28;20028;-63
2022/05/06 10:27:22;;;;;;;12.20;7.40;;;34.20;53.30;;;;;;5053149;28;20056;-63
2022/05/06 10:32:55;;;;;;;13.85;7.57;;;34.30;53.10;;;;;;5084519;28;20353;-65
2022/05/06 10:35:38;;;;;;;12.02;7.50;;;34.60;52.30;;;;;;5089490;28;20020;-64
2022/05/06 10:38:26;;;;;;;13.50;7.28;;;34.70;51.90;;;;;;5090227;28;20028;-65
2022/05/06 10:40:57;;;;;;;12.18;6.80;;;34.70;51.90;;;;;;5090092;28;20114;-62
2022/05/06 10:43:41;;;;;;;14.60;8.20;;;34.60;51.60;;;;;;5090234;28;20030;-65
2022/05/06 10:46:10;;;;;;;13.82;7.25;;;34.70;51.70;;;;;;5089637;28;20491;-64
2022/05/06 10:48:35;;;;;;;11.52;6.88;;;34.90;51.30;;;;;;5083347;28;20495;-65
2022/05/06 10:51:27;;;;;;;11.52;6.82;;;35.10;50.80;;;;;;5069390;28;20021;-64
2022/05/06 10:53:54;;;;;;;11.07;7.22;;;35.20;50.50;;;;;;5068129;28;20023;-63
2022/05/06 10:56:19;;;;;;;14.82;8.73;;;35.40;50.40;;;;;;5069284;28;20040;-62
2022/05/06 10:58:45;;;;;;;15.50;9.00;;;35.50;50.20;;;;;;5069048;28;20025;-65
2022/05/06 11:01:17;;;;;;;10.70;7.10;;;35.60;50.10;;;;;;5069267;28;20548;-66
2022/05/06 11:03:52;;;;;;;13.15;8.13;;;35.40;49.90;;;;;;5069317;28;20033;-66
2022/05/06 11:06:22;;;;;;;15.13;8.15;;;34.90;50.30;;;;;;5069225;28;20025;-63
2022/05/06 11:08:48;;;;;;;13.55;7.45;;;34.80;50.20;;;;;;5069442;28;20041;-62
2022/05/06 11:11:18;;;;;;;16.02;9.98;;;35.10;50.00;;;;;;5069239;28;20094;-64
2022/05/06 11:13:47;;;;;;;12.70;7.43;;;35.00;49.90;;;;;;5069389;28;20031;-64
2022/05/06 11:16:14;;;;;;;18.13;10.15;;;34.60;50.00;;;;;;5069112;28;20020;-62
2022/05/06 11:18:48;;;;;;;23.13;11.27;;;34.20;50.50;;;;;;5068882;28;20078;-64
2022/05/06 11:21:21;;;;;;;13.70;8.48;;;34.20;50.30;;;;;;5067248;28;20031;-64
2022/05/06 11:23:46;;;;;;;18.83;9.52;;;34.50;50.20;;;;;;5068621;28;20089;-62
2022/05/06 11:26:23;;;;;;;13.65;7.82;;;34.60;49.90;;;;;;5067554;28;20473;-67
2022/05/06 11:29:05;;;;;;;13.65;7.70;;;34.80;49.70;;;;;;5066913;28;20051;-62
2022/05/06 11:31:31;;;;;;;17.23;8.50;;;34.90;49.70;;;;;;5068460;28;20021;-67
2022/05/06 11:34:01;;;;;;;13.25;7.13;;;35.10;49.00;;;;;;5067196;28;20035;-63
2022/05/06 11:36:27;;;;;;;11.70;6.70;;;34.70;49.30;;;;;;5068685;28;20058;-64
2022/05/06 11:38:52;;;;;;;11.27;7.55;;;34.40;49.40;;;;;;5068613;28;20021;-64
2022/05/06 11:41:18;;;;;;;13.77;8.05;;;34.00;49.50;;;;;;5054091;28;20025;-63
2022/05/06 11:43:45;;;;;;;11.90;7.45;;;33.70;49.80;;;;;;5055386;28;20024;-67
2022/05/06 11:49:03;;;;;;;10.52;7.18;;;33.70;50.10;;;;;;5050549;28;20039;-64
2022/05/06 11:51:37;;;;;;;10.75;7.07;;;34.00;50.10;;;;;;5053656;28;20075;-66
2022/05/06 11:54:05;;;;;;;14.98;7.78;;;33.80;49.80;;;;;;5055002;28;20032;-63
2022/05/06 11:56:33;;;;;;;11.68;7.57;;;33.30;50.20;;;;;;5054775;28;20021;-63
2022/05/06 11:58:59;;;;;;;9.73;6.47;;;33.50;49.90;;;;;;5054097;28;20514;-63
2022/05/06 12:01:27;;;;;;;9.52;6.07;;;33.70;49.80;;;;;;5054606;28;20021;-64
2022/05/06 12:03:53;;;;;;;12.18;6.25;;;33.60;49.50;;;;;;5053213;28;20061;-67
2022/05/06 12:06:25;;;;;;;8.98;5.43;;;33.70;49.70;;;;;;5052250;28;20025;-65
2022/05/06 12:08:51;;;;;;;9.45;5.57;;;33.80;49.50;;;;;;5054625;28;20025;-63
2022/05/06 12:11:24;;;;;;;13.80;5.00;;;33.40;49.80;;;;;;5055102;28;20017;-65
2022/05/06 12:13:49;;;;;;;8.82;5.25;;;33.50;49.70;;;;;;5054370;28;20044;-65
2022/05/06 12:16:15;;;;;;;8.18;5.25;;;33.70;49.60;;;;;;5054634;28;20021;-64
2022/05/06 12:18:58;;;;;;;12.45;6.00;;;33.90;49.60;;;;;;5054358;28;20025;-65
2022/05/06 12:21:26;;;;;;;11.13;6.18;;;33.50;49.50;;;;;;5054166;28;20104;-66
2022/05/06 12:23:56;;;;;;;8.75;5.75;;;33.10;50.40;;;;;;5054138;28;20052;-62
2022/05/06 12:26:34;;;;;;;9.85;5.90;;;32.50;50.30;;;;;;5054327;28;20028;-66
2022/05/06 12:29:02;;;;;;;8.77;5.93;;;32.10;50.90;;;;;;5054170;28;20051;-63
2022/05/06 12:31:32;;;;;;;9.85;5.80;;;32.20;50.80;;;;;;5054420;28;20136;-65
2022/05/06 12:34:07;;;;;;;10.20;6.03;;;32.40;50.80;;;;;;5054328;28;20025;-65
2022/05/06 12:36:34;;;;;;;10.13;6.68;;;32.40;50.30;;;;;;5054013;28;20104;-64
2022/05/06 12:39:00;;;;;;;9.15;6.00;;;31.80;50.60;;;;;;5054323;28;20021;-63
2022/05/06 12:41:34;;;;;;;7.85;5.25;;;31.20;51.10;;;;;;5054165;28;20032;-65
2022/05/06 12:44:18;;;;;;;13.20;6.35;;;30.40;52.10;;;;;;5052081;28;20028;-64
2022/05/06 12:46:44;;;;;;;9.07;5.70;;;29.90;52.80;;;;;;5053698;28;20020;-64
2022/05/06 12:51:53;;;;;;;8.20;5.13;;;29.70;53.00;;;;;;5052793;28;20436;-65
2022/05/06 12:54:19;;;;;;;8.35;4.88;;;29.40;53.20;;;;;;5053608;28;20461;-65
2022/05/06 12:56:45;;;;;;;9.32;5.45;;;28.90;53.80;;;;;;5053583;28;20036;-63
2022/05/06 12:59:10;;;;;;;8.45;5.55;;;28.40;53.90;;;;;;5053843;28;20033;-63
2022/05/06 13:01:36;;;;;;;12.13;5.57;;;27.90;54.80;;;;;;5053685;28;20017;-66
2022/05/06 13:04:03;;;;;;;9.85;5.45;;;27.50;55.20;;;;;;5053910;28;20040;-62
2022/05/06 13:06:32;;;;;;;8.82;5.25;;;27.20;55.60;;;;;;5048173;28;20021;-62
2022/05/06 13:08:57;;;;;;;9.05;5.28;;;27.00;56.40;;;;;;5053134;28;20040;-62
2022/05/06 13:11:23;;;;;;;9.95;5.85;;;26.80;56.20;;;;;;5053309;28;20021;-62
2022/05/06 13:13:48;;;;;;;10.05;5.88;;;26.70;56.70;;;;;;5052676;28;20096;-62
2022/05/06 13:16:14;;;;;;;10.32;5.55;;;26.50;56.80;;;;;;5053540;28;20051;-62
2022/05/06 13:18:41;;;;;;;9.40;5.35;;;26.30;57.30;;;;;;5053812;28;20033;-62